EDDHEDHI

Guest
Details From EDDH - Hamburg
To EDHI - Hamburg Finkenwerder
Flight Number -
Tags decoded
Created
Modified
Stats Distance 84 nm / 155 km
Max Altitude 0 ft / 0 m
Waypoints 5
Social Downloads 0
Likes 0
Share VATSIM

Download

Looking for another format? Having issues loading an existing format? Contact us
Advertisement - Login to hide

Notes

Requested: EDDH LBE09 ESTAD HAM28 MABAS GESTO VALKI OSTOR EDHI Unmatched points: LBE09 HAM28

Route

EDDH MABAS GESTO VALKI EDHI

ID Type Via Altitude Latitude Longitude Leg Dist Tot Dist Heading (true) Name
O EDDH APT - 0 ft / 0 m 53.63367˚ 9.98524˚ - 0 nm - Hamburg
MABAS FIX - 0 ft / 0 m 53.52056˚ 10.28083˚ 12 nm 12 nm 123° / 123° -
GESTO FIX - 0 ft / 0 m 53.17500˚ 10.08361˚ 21 nm 34 nm 199° / 199° -
VALKI FIX - 0 ft / 0 m 53.13528˚ 9.47361˚ 22 nm 56 nm 264° / 264° -
O EDHI APT - 0 ft / 0 m 53.53591˚ 9.83707˚ 27 nm 83 nm 28° / 29° Hamburg Finkenwerder

Altitude Profile

Advertisement - Login to hide

EDDH

Details ICAO EDDH (HAM)
Name Hamburg
Region Germany - Civil
Timezone Europe/Berlin (UTC+2.0)
Stats Elevation 53 ft / 16 m (AMSL)
Location 53.633665° 9.985235°
Runways 2
Magnetic Variation 2.870° E

METAR

EDDH 200250Z 32004KT CAVOK 11/09 Q1017 NOSIG

Decode

TAF

TAF EDDH 192300Z 2000/2106 VRB03KT CAVOK BECMG 2006/2009 04006KT

Decode

Departure Runways

ID Width Length Bearing (true) Bearing (mag) Surface Threshold Offset Overrun Length
05 151 ft / 46 m 10,647 ft / 3,245 m 50.18° 47.31° Asphalt 978 ft / 298 m 194 ft / 59 m
15 151 ft / 46 m 12,013 ft / 3,662 m 152.89° 150.02° Asphalt 0 ft / 0 m 194 ft / 59 m
23 151 ft / 46 m 10,647 ft / 3,245 m 230.22° 227.35° Asphalt 509 ft / 155 m 240 ft / 73 m
33 151 ft / 46 m 12,013 ft / 3,662 m 332.91° 330.04° Asphalt 1,463 ft / 446 m 164 ft / 50 m

EDHI

Details ICAO EDHI (XFW)
Name Hamburg Finkenwerder
Region Germany - Civil
Timezone Europe/Berlin (UTC+2.0)
Stats Elevation 21 ft / 6 m (AMSL)
Location 53.535910° 9.837071°
Runways 1
Magnetic Variation 2.821° E

METAR

EDHI 200250Z AUTO 04003KT 360V070 9999 // FEW071/// BKN081/// 14/10 Q1016

Decode

TAF

Not found

Destination Runways

ID Width Length Bearing (true) Bearing (mag) Surface Threshold Offset Overrun Length
05 148 ft / 45 m 8,628 ft / 2,630 m 51.57° 48.75° Asphalt 341 ft / 104 m 341 ft / 104 m
23 148 ft / 45 m 8,628 ft / 2,630 m 231.59° 228.77° Asphalt 2,474 ft / 754 m 328 ft / 100 m

Approach Navaids

Runway Type Ident Frequency Range Bearing (true) Bearing (mag) Slope Elevation
05 Localiser IHFE 110.70 MHz 18 nm / 33 km 51.50° 48.68° - 15 ft / 5 m (AMSL)
05 Glidescope IHFE 110.70 MHz 10 nm / 19 km 51.58° 48.76° 3.10° 21 ft / 6 m (AMSL)
23 Localiser HFW 108.50 MHz 18 nm / 33 km 231.80° 228.98° - 16 ft / 5 m (AMSL)
23 Glidescope HFW 108.50 MHz 10 nm / 19 km 231.58° 228.76° 3.00° 21 ft / 6 m (AMSL)
23 DME HFW 108.50 MHz 18 nm / 33 km - - - 51 ft / 16 m (AMSL)

Popular Alternatives